Time;durP1;ratioP1;P1;durP2;ratioP2;P2;SDS_P1;SDS_P2;PMS_P1;PMS_P2;Temp;Humidity;BMP_temperature;BMP_pressure;BME280_temperature;BME280_humidity;BME280_pressure;Samples;Min_cycle;Max_cycle;Signal;HPM_P1;HPM_P2
2022/08/19 00:02:06;;;;;;;2.05;0.82;;;;;;;;;;5010583;28;20032;-77
2022/08/19 00:04:37;;;;;;;2.20;1.23;;;;;;;;;;5013682;28;20072;-79
2022/08/19 00:07:07;;;;;;;0.90;0.63;;;;;;;;;;5014091;28;20022;-78
2022/08/19 00:09:35;;;;;;;1.92;1.23;;;;;;;;;;5016661;28;20025;-78
2022/08/19 00:12:02;;;;;;;1.17;0.93;;;;;;;;;;5010877;28;20039;-78
2022/08/19 00:14:32;;;;;;;0.73;0.73;;;;;;;;;;4993411;28;21827;-79
2022/08/19 00:16:59;;;;;;;1.63;1.02;;;;;;;;;;5009595;28;20029;-79
2022/08/19 00:19:24;;;;;;;3.35;1.23;;;;;;;;;;5009296;28;20109;-77
2022/08/19 00:21:51;;;;;;;1.15;0.93;;;;;;;;;;5010270;28;21034;-75
2022/08/19 00:24:21;;;;;;;0.68;0.68;;;;;;;;;;5009994;28;20496;-76
2022/08/19 00:26:50;;;;;;;0.90;0.80;;;;;;;;;;5009698;28;20333;-73
2022/08/19 00:29:22;;;;;;;0.65;0.65;;;;;;;;;;5009986;28;20030;-77
2022/08/19 00:31:54;;;;;;;1.55;1.13;;;;;;;;;;5008691;28;20034;-74
2022/08/19 00:34:20;;;;;;;2.17;0.97;;;;;;;;;;5010514;28;20021;-77
2022/08/19 00:36:48;;;;;;;1.40;1.30;;;;;;;;;;5008178;28;20030;-77
2022/08/19 00:39:15;;;;;;;1.88;0.90;;;;;;;;;;5006757;28;20034;-77
2022/08/19 00:41:44;;;;;;;1.35;1.05;;;;;;;;;;5014243;28;20665;-77
2022/08/19 00:44:28;;;;;;;0.30;0.20;;;;;;;;;;5012298;28;20022;-77
2022/08/19 00:46:55;;;;;;;1.15;1.05;;;;;;;;;;5024429;28;20049;-75
2022/08/19 00:49:27;;;;;;;1.63;1.40;;;;;;;;;;5012400;28;20125;-77
2022/08/19 00:52:00;;;;;;;1.25;1.15;;;;;;;;;;5007435;28;20080;-76
2022/08/19 00:54:26;;;;;;;1.95;1.38;;;;;;;;;;5019427;28;20049;-78
2022/08/19 00:56:52;;;;;;;0.88;0.70;;;;;;;;;;5009012;28;20365;-73
2022/08/19 00:59:20;;;;;;;1.25;0.93;;;;;;;;;;5009226;28;20088;-76
2022/08/19 01:01:46;;;;;;;1.92;1.63;;;;;;;;;;5010572;28;20061;-74
2022/08/19 01:04:14;;;;;;;2.78;1.58;;;;;;;;;;5016987;28;20037;-76
2022/08/19 01:06:42;;;;;;;1.42;1.08;;;;;;;;;;5010284;28;20357;-77
2022/08/19 01:09:10;;;;;;;1.60;1.50;;;;;;;;;;5014467;28;20025;-77
2022/08/19 01:11:41;;;;;;;1.38;1.00;;;;;;;;;;5014834;28;20052;-78
2022/08/19 01:14:09;;;;;;;4.88;1.15;;;;;;;;;;5029426;28;20056;-72
2022/08/19 01:16:35;;;;;;;1.88;1.20;;;;;;;;;;5006821;28;20072;-77
2022/08/19 01:19:01;;;;;;;1.55;1.45;;;;;;;;;;5019191;28;20025;-76
2022/08/19 01:21:57;;;;;;;3.53;2.20;;;;;;;;;;5012157;28;20037;-78
2022/08/19 01:24:25;;;;;;;1.35;0.85;;;;;;;;;;5015954;28;20038;-77
2022/08/19 01:26:54;;;;;;;0.95;0.90;;;;;;;;;;5013085;28;20034;-77
2022/08/19 01:29:22;;;;;;;1.45;1.35;;;;;;;;;;5011933;28;20030;-77
2022/08/19 01:31:52;;;;;;;2.05;1.35;;;;;;;;;;5021059;28;20353;-77
2022/08/19 01:34:18;;;;;;;2.40;1.00;;;;;;;;;;5020142;28;20037;-77
2022/08/19 01:36:47;;;;;;;1.25;1.10;;;;;;;;;;5023725;28;20030;-77
2022/08/19 01:39:16;;;;;;;1.45;1.17;;;;;;;;;;5018974;28;20506;-78
2022/08/19 01:41:46;;;;;;;1.77;1.58;;;;;;;;;;5010813;28;20476;-78
2022/08/19 01:44:14;;;;;;;1.38;0.98;;;;;;;;;;5014647;28;20033;-77
2022/08/19 01:46:44;;;;;;;1.38;1.13;;;;;;;;;;5013180;28;20583;-77
2022/08/19 01:49:12;;;;;;;1.60;1.50;;;;;;;;;;5012279;28;20029;-77
2022/08/19 01:51:39;;;;;;;2.35;1.35;;;;;;;;;;5017201;28;20025;-77
2022/08/19 01:54:07;;;;;;;1.70;1.45;;;;;;;;;;5012177;28;20122;-78
2022/08/19 01:56:32;;;;;;;1.95;1.60;;;;;;;;;;5015802;28;20022;-75
2022/08/19 01:59:02;;;;;;;1.85;1.48;;;;;;;;;;5019022;28;20036;-77
2022/08/19 02:01:31;;;;;;;1.30;1.13;;;;;;;;;;5009522;28;20022;-76
2022/08/19 02:03:58;;;;;;;2.15;1.27;;;;;;;;;;5014768;28;20476;-76
2022/08/19 02:06:23;;;;;;;2.88;1.60;;;;;;;;;;5014920;28;20029;-76
2022/08/19 02:08:51;;;;;;;1.50;1.35;;;;;;;;;;5016136;28;20034;-77
2022/08/19 02:11:38;;;;;;;1.27;1.13;;;;;;;;;;5029094;28;20432;-75
2022/08/19 02:14:07;;;;;;;2.58;1.63;;;;;;;;;;5012238;28;20030;-77
2022/08/19 02:16:33;;;;;;;1.45;0.95;;;;;;;;;;5015876;28;20053;-77
2022/08/19 02:19:01;;;;;;;1.63;1.17;;;;;;;;;;5025986;28;20053;-77
2022/08/19 02:21:28;;;;;;;1.50;1.35;;;;;;;;;;5016442;28;20118;-77
2022/08/19 02:23:56;;;;;;;2.08;1.35;;;;;;;;;;5018448;28;20025;-77
2022/08/19 02:26:26;;;;;;;1.65;1.00;;;;;;;;;;5015781;28;20318;-77
2022/08/19 02:28:51;;;;;;;2.17;1.70;;;;;;;;;;5012895;28;20434;-77
2022/08/19 02:31:19;;;;;;;1.40;1.23;;;;;;;;;;5016132;28;20034;-77
2022/08/19 02:33:45;;;;;;;3.10;1.55;;;;;;;;;;5023008;28;20029;-77
2022/08/19 02:36:15;;;;;;;1.77;1.23;;;;;;;;;;5019542;28;20034;-76
2022/08/19 02:38:45;;;;;;;1.92;1.83;;;;;;;;;;5016639;28;20040;-77
2022/08/19 02:41:17;;;;;;;3.10;1.55;;;;;;;;;;5014626;28;20022;-76
2022/08/19 02:43:43;;;;;;;1.58;1.00;;;;;;;;;;5016572;28;20048;-78
2022/08/19 02:46:15;;;;;;;1.17;0.93;;;;;;;;;;5018834;28;21346;-77
2022/08/19 02:48:45;;;;;;;;;;;;;;;;;;5016091;28;20033;-77
2022/08/19 02:51:18;;;;;;;2.60;2.13;;;;;;;;;;5018018;28;19913;-77
2022/08/19 02:53:46;;;;;;;3.55;1.77;;;;;;;;;;5016213;28;20053;-77
2022/08/19 02:56:11;;;;;;;2.13;1.33;;;;;;;;;;5013805;28;20037;-77
2022/08/19 02:58:37;;;;;;;2.53;1.90;;;;;;;;;;5013532;28;20108;-74
2022/08/19 03:01:02;;;;;;;1.92;1.52;;;;;;;;;;5012485;28;20072;-78
2022/08/19 03:03:28;;;;;;;1.23;1.17;;;;;;;;;;5024254;28;20029;-78
2022/08/19 03:06:08;;;;;;;1.77;1.40;;;;;;;;;;5020361;28;20026;-78
2022/08/19 03:08:38;;;;;;;3.28;1.80;;;;;;;;;;5027347;28;20036;-78
2022/08/19 03:11:06;;;;;;;0.65;0.65;;;;;;;;;;5015818;28;20030;-76
2022/08/19 03:13:36;;;;;;;0.80;0.80;;;;;;;;;;5024147;28;20326;-78
2022/08/19 03:16:05;;;;;;;3.30;2.10;;;;;;;;;;5019660;28;20029;-77
2022/08/19 03:18:30;;;;;;;2.53;1.67;;;;;;;;;;5011249;28;20108;-78
2022/08/19 03:20:58;;;;;;;1.20;1.10;;;;;;;;;;5006278;28;20113;-78
2022/08/19 03:23:26;;;;;;;1.83;1.70;;;;;;;;;;5007657;28;20515;-79
2022/08/19 03:25:53;;;;;;;1.48;1.38;;;;;;;;;;5027144;28;20056;-79
2022/08/19 03:28:19;;;;;;;1.77;1.55;;;;;;;;;;5020058;28;20026;-78
2022/08/19 03:30:59;;;;;;;1.52;1.35;;;;;;;;;;5013862;28;20464;-79
2022/08/19 03:33:26;;;;;;;1.48;1.38;;;;;;;;;;4995113;28;20408;-78
2022/08/19 03:36:10;;;;;;;1.83;1.40;;;;;;;;;;5020633;28;20033;-77
2022/08/19 03:38:42;;;;;;;2.28;1.58;;;;;;;;;;5014861;28;20058;-78
2022/08/19 03:41:10;;;;;;;1.35;1.05;;;;;;;;;;5010408;28;20112;-79
2022/08/19 03:43:37;;;;;;;1.92;1.80;;;;;;;;;;5014302;28;20512;-77
2022/08/19 03:46:12;;;;;;;1.30;1.20;;;;;;;;;;5021301;28;20063;-75
2022/08/19 03:48:39;;;;;;;1.67;0.93;;;;;;;;;;5020177;28;20471;-76
2022/08/19 03:51:05;;;;;;;1.55;1.10;;;;;;;;;;5012977;28;20060;-77
2022/08/19 03:53:33;;;;;;;2.17;1.98;;;;;;;;;;5018424;28;20030;-75
2022/08/19 03:56:04;;;;;;;1.85;1.40;;;;;;;;;;5011378;28;20475;-76
2022/08/19 03:58:32;;;;;;;1.60;1.13;;;;;;;;;;5013804;28;20117;-76
2022/08/19 04:00:58;;;;;;;1.58;1.48;;;;;;;;;;5010410;28;20030;-75
2022/08/19 04:03:24;;;;;;;2.17;1.98;;;;;;;;;;5010201;28;20033;-76
2022/08/19 04:05:50;;;;;;;2.17;1.55;;;;;;;;;;5006035;28;20049;-75
2022/08/19 04:08:22;;;;;;;2.25;2.05;;;;;;;;;;4993464;28;20030;-77
2022/08/19 04:10:50;;;;;;;2.17;1.65;;;;;;;;;;5010902;28;20504;-77
2022/08/19 04:13:16;;;;;;;2.65;1.95;;;;;;;;;;5020035;28;20117;-76
2022/08/19 04:15:47;;;;;;;1.52;1.42;;;;;;;;;;5014278;28;20053;-76
2022/08/19 04:18:13;;;;;;;2.35;2.15;;;;;;;;;;5012487;28;20025;-77
2022/08/19 04:20:45;;;;;;;1.65;1.52;;;;;;;;;;5028339;28;20116;-75
2022/08/19 04:23:11;;;;;;;2.35;2.00;;;;;;;;;;5020231;28;20030;-77
2022/08/19 04:25:38;;;;;;;1.85;1.33;;;;;;;;;;5022282;28;20416;-77
2022/08/19 04:28:06;;;;;;;3.10;2.42;;;;;;;;;;5010576;28;20329;-78
2022/08/19 04:30:41;;;;;;;1.33;1.23;;;;;;;;;;5019507;28;20570;-75
2022/08/19 04:33:12;;;;;;;2.50;1.42;;;;;;;;;;5017024;28;20041;-74
2022/08/19 04:35:42;;;;;;;1.85;1.67;;;;;;;;;;5014248;28;20030;-76
2022/08/19 04:38:08;;;;;;;1.75;1.60;;;;;;;;;;5012859;28;20491;-76
2022/08/19 04:43:23;;;;;;;1.48;1.23;;;;;;;;;;5013135;28;20048;-73
2022/08/19 04:45:51;;;;;;;1.98;1.80;;;;;;;;;;5018273;28;20388;-74
2022/08/19 04:48:19;;;;;;;2.25;1.67;;;;;;;;;;5011187;28;20022;-77
2022/08/19 04:50:44;;;;;;;4.07;2.50;;;;;;;;;;5014140;28;20052;-77
2022/08/19 04:53:12;;;;;;;1.50;1.40;;;;;;;;;;5023123;28;20433;-77
2022/08/19 04:55:40;;;;;;;2.70;2.22;;;;;;;;;;5013614;28;20117;-77
2022/08/19 04:58:05;;;;;;;6.75;1.38;;;;;;;;;;5020119;28;20043;-77
2022/08/19 05:00:33;;;;;;;1.77;1.33;;;;;;;;;;5018325;28;20031;-78
2022/08/19 05:03:02;;;;;;;3.13;2.30;;;;;;;;;;5018297;28;20337;-78
2022/08/19 05:05:27;;;;;;;4.20;1.88;;;;;;;;;;5014393;28;20032;-78
2022/08/19 05:07:55;;;;;;;1.73;1.50;;;;;;;;;;5012747;28;20025;-76
2022/08/19 05:10:21;;;;;;;2.35;2.00;;;;;;;;;;5019928;28;20654;-78
2022/08/19 05:12:51;;;;;;;3.17;2.25;;;;;;;;;;5015560;28;20061;-78
2022/08/19 05:15:19;;;;;;;2.85;1.58;;;;;;;;;;5019242;28;20079;-78
2022/08/19 05:22:32;;;;;;;3.08;1.92;;;;;;;;;;5030870;28;20110;-78
2022/08/19 05:23:16;;;;;;;3.55;2.75;;;;;;;;;;5022472;28;20095;-78
2022/08/19 05:25:42;;;;;;;3.92;2.22;;;;;;;;;;5022419;28;20572;-78
2022/08/19 05:28:12;;;;;;;2.42;2.22;;;;;;;;;;5027745;28;20080;-78
2022/08/19 05:30:37;;;;;;;2.13;1.90;;;;;;;;;;5020535;28;20032;-78
2022/08/19 05:33:03;;;;;;;2.72;2.25;;;;;;;;;;5029527;28;20390;-78
2022/08/19 05:35:31;;;;;;;5.80;3.47;;;;;;;;;;5019047;28;20145;-79
2022/08/19 05:37:58;;;;;;;3.15;1.73;;;;;;;;;;5019572;28;20113;-78
2022/08/19 05:40:26;;;;;;;3.33;1.88;;;;;;;;;;5019348;28;20021;-78
2022/08/19 05:42:53;;;;;;;5.28;3.38;;;;;;;;;;5019142;28;20025;-78
2022/08/19 05:45:18;;;;;;;2.33;2.13;;;;;;;;;;5016428;28;20072;-78
2022/08/19 05:47:46;;;;;;;3.25;2.92;;;;;;;;;;5028767;28;20057;-78
2022/08/19 05:50:14;;;;;;;4.40;3.13;;;;;;;;;;5016488;28;20109;-77
2022/08/19 05:52:39;;;;;;;3.70;2.30;;;;;;;;;;5017255;28;20041;-78
2022/08/19 05:55:05;;;;;;;2.70;2.15;;;;;;;;;;5014110;28;20025;-77
2022/08/19 05:57:31;;;;;;;3.15;2.60;;;;;;;;;;5015568;28;20088;-78
2022/08/19 06:00:04;;;;;;;5.15;2.65;;;;;;;;;;5023037;28;20748;-75
2022/08/19 06:02:35;;;;;;;4.88;3.80;;;;;;;;;;5032107;28;20527;-78
2022/08/19 06:05:03;;;;;;;7.03;2.53;;;;;;;;;;5016466;28;20026;-79
2022/08/19 06:07:28;;;;;;;4.63;2.70;;;;;;;;;;5016854;28;20038;-78
2022/08/19 06:09:54;;;;;;;5.80;3.58;;;;;;;;;;5015364;28;20079;-79
2022/08/19 06:12:19;;;;;;;3.63;3.10;;;;;;;;;;5012480;28;20018;-78
2022/08/19 06:14:50;;;;;;;3.10;2.47;;;;;;;;;;5014359;28;20026;-75
2022/08/19 06:17:20;;;;;;;2.70;2.50;;;;;;;;;;5018450;28;20021;-77
2022/08/19 06:19:46;;;;;;;2.47;2.28;;;;;;;;;;5018964;28;20030;-78
2022/08/19 06:22:12;;;;;;;2.38;1.67;;;;;;;;;;5015790;28;20075;-78
2022/08/19 06:24:40;;;;;;;3.60;2.53;;;;;;;;;;5015546;28;20115;-78
2022/08/19 06:27:05;;;;;;;3.08;2.22;;;;;;;;;;5014390;28;20022;-78
2022/08/19 06:29:31;;;;;;;6.60;2.72;;;;;;;;;;5012898;28;20048;-77
2022/08/19 06:32:02;;;;;;;4.13;2.15;;;;;;;;;;5011331;28;20065;-75
2022/08/19 06:34:30;;;;;;;5.72;3.17;;;;;;;;;;5018735;28;20140;-78
2022/08/19 06:37:00;;;;;;;2.00;1.77;;;;;;;;;;5013808;28;20026;-78
2022/08/19 06:39:29;;;;;;;2.80;1.75;;;;;;;;;;5013738;28;20029;-78
2022/08/19 06:41:59;;;;;;;4.25;2.80;;;;;;;;;;5015928;28;20049;-80
2022/08/19 06:44:28;;;;;;;2.90;1.77;;;;;;;;;;5014454;28;20050;-78
2022/08/19 06:46:54;;;;;;;3.95;3.30;;;;;;;;;;5026834;28;20488;-78
2022/08/19 06:49:23;;;;;;;2.17;1.63;;;;;;;;;;4995085;28;20060;-78
2022/08/19 06:51:49;;;;;;;2.90;2.28;;;;;;;;;;5004467;28;20042;-78
2022/08/19 06:54:18;;;;;;;2.03;1.25;;;;;;;;;;4996807;28;20034;-78
2022/08/19 06:56:45;;;;;;;2.60;1.95;;;;;;;;;;5010140;28;20026;-80
2022/08/19 06:59:13;;;;;;;4.38;2.30;;;;;;;;;;5010545;28;20025;-78
2022/08/19 07:01:42;;;;;;;3.33;2.72;;;;;;;;;;5013506;28;20437;-77
2022/08/19 07:04:08;;;;;;;3.03;2.30;;;;;;;;;;5010239;28;20041;-77
2022/08/19 07:06:34;;;;;;;3.78;2.60;;;;;;;;;;5015578;28;20017;-78
2022/08/19 07:09:14;;;;;;;3.80;3.00;;;;;;;;;;5010088;28;20041;-77
2022/08/19 07:11:47;;;;;;;3.13;2.67;;;;;;;;;;5010294;28;20029;-77
2022/08/19 07:14:25;;;;;;;2.63;2.20;;;;;;;;;;4992377;28;20026;-79
2022/08/19 07:17:15;;;;;;;2.50;2.15;;;;;;;;;;5009824;28;20025;-74
2022/08/19 07:19:55;;;;;;;3.30;2.15;;;;;;;;;;5008399;28;20105;-78
2022/08/19 07:22:24;;;;;;;3.28;1.60;;;;;;;;;;5009173;28;20057;-76
2022/08/19 07:25:07;;;;;;;2.15;1.58;;;;;;;;;;5010429;28;21586;-78
2022/08/19 07:27:41;;;;;;;2.80;1.83;;;;;;;;;;5007736;28;20457;-77
2022/08/19 07:30:11;;;;;;;3.67;2.03;;;;;;;;;;5011148;28;20113;-79
2022/08/19 07:32:37;;;;;;;4.57;2.70;;;;;;;;;;5010215;28;20033;-78
2022/08/19 07:35:03;;;;;;;3.75;2.53;;;;;;;;;;5011016;28;20409;-76
2022/08/19 07:37:28;;;;;;;2.28;2.08;;;;;;;;;;5008675;28;20071;-79
2022/08/19 07:39:57;;;;;;;3.60;2.40;;;;;;;;;;5007172;28;20048;-79
2022/08/19 07:42:22;;;;;;;1.95;1.33;;;;;;;;;;5015729;28;20030;-79
2022/08/19 07:44:55;;;;;;;3.50;2.25;;;;;;;;;;5009462;28;20083;-79
2022/08/19 07:47:20;;;;;;;4.97;3.10;;;;;;;;;;5010047;28;20030;-80
2022/08/19 07:49:46;;;;;;;4.68;2.20;;;;;;;;;;5009775;28;20338;-79
2022/08/19 07:52:15;;;;;;;4.10;1.95;;;;;;;;;;5007184;28;20040;-79
2022/08/19 07:54:40;;;;;;;3.10;2.05;;;;;;;;;;5007788;28;20038;-79
2022/08/19 07:57:06;;;;;;;3.35;2.33;;;;;;;;;;5008630;28;20032;-80
2022/08/19 07:59:35;;;;;;;2.88;2.30;;;;;;;;;;5008107;28;20180;-74
2022/08/19 08:02:04;;;;;;;3.47;1.83;;;;;;;;;;5012380;28;20034;-78
2022/08/19 08:09:59;;;;;;;2.88;2.40;;;;;;;;;;5008449;28;20087;-75
2022/08/19 08:12:30;;;;;;;3.97;2.75;;;;;;;;;;5006261;28;20025;-78
2022/08/19 08:14:58;;;;;;;3.42;2.22;;;;;;;;;;5006314;28;20038;-78
2022/08/19 08:17:26;;;;;;;2.45;1.75;;;;;;;;;;5008638;28;20085;-74
2022/08/19 08:19:51;;;;;;;4.30;2.17;;;;;;;;;;5012281;28;20029;-76
2022/08/19 08:25:23;;;;;;;2.45;2.25;;;;;;;;;;5007614;28;20118;-77
2022/08/19 08:28:00;;;;;;;2.78;2.20;;;;;;;;;;5007623;28;20038;-76
2022/08/19 08:30:33;;;;;;;5.13;3.47;;;;;;;;;;5007577;28;20030;-76
2022/08/19 08:33:00;;;;;;;3.22;2.38;;;;;;;;;;5007177;28;20053;-78
2022/08/19 08:35:29;;;;;;;4.82;2.92;;;;;;;;;;5002064;28;20033;-82
2022/08/19 08:37:55;;;;;;;3.03;2.70;;;;;;;;;;5009755;28;20472;-80
2022/08/19 08:40:34;;;;;;;4.43;2.65;;;;;;;;;;5007458;28;20067;-80
2022/08/19 08:43:04;;;;;;;5.15;3.65;;;;;;;;;;5008673;28;20433;-77
2022/08/19 08:45:30;;;;;;;4.97;2.92;;;;;;;;;;5002214;28;20022;-77
2022/08/19 08:47:58;;;;;;;4.03;3.55;;;;;;;;;;5007565;28;20400;-77
2022/08/19 08:50:44;;;;;;;3.83;3.00;;;;;;;;;;5007324;28;20033;-78
2022/08/19 08:53:19;;;;;;;3.80;2.92;;;;;;;;;;4991002;28;20030;-78
2022/08/19 08:55:46;;;;;;;3.30;2.70;;;;;;;;;;5002681;28;20033;-77
2022/08/19 08:58:54;;;;;;;6.00;3.33;;;;;;;;;;5009474;28;20033;-78
2022/08/19 09:01:20;;;;;;;3.58;2.65;;;;;;;;;;5006927;28;20029;-77
2022/08/19 09:03:48;;;;;;;3.35;2.40;;;;;;;;;;5009004;28;20364;-74
2022/08/19 09:06:40;;;;;;;5.50;3.90;;;;;;;;;;5007458;28;20460;-77
2022/08/19 09:09:30;;;;;;;5.72;3.63;;;;;;;;;;5008038;28;20042;-78
2022/08/19 09:11:58;;;;;;;5.32;3.88;;;;;;;;;;5008204;28;20065;-77
2022/08/19 09:14:41;;;;;;;6.68;3.78;;;;;;;;;;5006355;28;20057;-77
2022/08/19 09:17:12;;;;;;;13.23;5.75;;;;;;;;;;5012607;28;20368;-78
2022/08/19 09:19:56;;;;;;;5.03;4.13;;;;;;;;;;5020656;28;20549;-78
2022/08/19 09:22:26;;;;;;;7.10;4.57;;;;;;;;;;5007415;28;20627;-78
2022/08/19 09:24:58;;;;;;;6.57;4.20;;;;;;;;;;5006626;28;20346;-76
2022/08/19 09:27:26;;;;;;;;;;;;;;;;;;5008060;28;20025;-72
2022/08/19 09:29:53;;;;;;;6.38;4.28;;;;;;;;;;5006945;28;20371;-75
2022/08/19 09:32:33;;;;;;;5.30;3.72;;;;;;;;;;5008377;28;20029;-74
2022/08/19 09:35:00;;;;;;;3.83;3.20;;;;;;;;;;5008487;28;20053;-75
2022/08/19 09:37:26;;;;;;;5.97;4.30;;;;;;;;;;5007946;28;20033;-74
2022/08/19 09:39:52;;;;;;;4.05;3.10;;;;;;;;;;5007838;28;20029;-74
2022/08/19 09:42:17;;;;;;;5.97;4.97;;;;;;;;;;5001724;28;20030;-73
2022/08/19 09:44:43;;;;;;;4.68;3.10;;;;;;;;;;5008324;28;20403;-74
2022/08/19 09:47:12;;;;;;;4.32;2.95;;;;;;;;;;5006428;28;20065;-76
2022/08/19 09:49:39;;;;;;;4.70;3.35;;;;;;;;;;5008582;28;20437;-74
2022/08/19 09:52:05;;;;;;;4.90;3.17;;;;;;;;;;5008032;28;20045;-75
2022/08/19 09:54:30;;;;;;;4.30;3.40;;;;;;;;;;5010597;28;20629;-74
2022/08/19 09:56:58;;;;;;;3.88;3.35;;;;;;;;;;5012093;28;20101;-76
2022/08/19 09:59:26;;;;;;;3.63;2.92;;;;;;;;;;5012648;28;20037;-73
2022/08/19 10:01:54;;;;;;;8.05;3.90;;;;;;;;;;5038338;28;20037;-74
2022/08/19 10:04:20;;;;;;;4.05;3.45;;;;;;;;;;5027624;28;20017;-73
2022/08/19 10:06:49;;;;;;;4.57;2.33;;;;;;;;;;5016054;28;20038;-73
2022/08/19 10:09:16;;;;;;;3.10;2.17;;;;;;;;;;5025224;28;20064;-73
2022/08/19 10:11:45;;;;;;;4.68;3.10;;;;;;;;;;5034253;28;20045;-73
2022/08/19 10:14:13;;;;;;;4.13;3.72;;;;;;;;;;5017269;28;20036;-73
2022/08/19 10:16:39;;;;;;;8.52;3.30;;;;;;;;;;5017344;28;20120;-73
2022/08/19 10:19:04;;;;;;;4.38;2.65;;;;;;;;;;5018142;28;20105;-74
2022/08/19 10:21:31;;;;;;;2.90;2.33;;;;;;;;;;5028724;28;20386;-73
2022/08/19 10:23:59;;;;;;;1.95;1.75;;;;;;;;;;5015892;28;20076;-73
2022/08/19 10:26:31;;;;;;;2.00;1.88;;;;;;;;;;5001022;28;20064;-73
2022/08/19 10:28:57;;;;;;;2.08;1.52;;;;;;;;;;5014558;28;20025;-73
2022/08/19 10:31:30;;;;;;;3.95;1.85;;;;;;;;;;5015390;28;20029;-73
2022/08/19 10:33:58;;;;;;;3.80;2.10;;;;;;;;;;5011992;28;20041;-75
2022/08/19 10:36:30;;;;;;;2.63;2.42;;;;;;;;;;5013462;28;20038;-75
2022/08/19 10:38:58;;;;;;;0.98;0.95;;;;;;;;;;5013685;28;20541;-76
2022/08/19 10:41:27;;;;;;;3.13;2.33;;;;;;;;;;5015318;28;20021;-75
2022/08/19 10:43:58;;;;;;;3.75;2.97;;;;;;;;;;5015368;28;20030;-74
2022/08/19 10:46:26;;;;;;;2.47;2.00;;;;;;;;;;4999101;28;20457;-75
2022/08/19 10:48:54;;;;;;;2.97;2.72;;;;;;;;;;5015560;28;20029;-74
2022/08/19 10:54:04;;;;;;;2.72;1.83;;;;;;;;;;5008344;28;20251;-74
2022/08/19 10:59:15;;;;;;;2.70;2.00;;;;;;;;;;5015377;28;20099;-71
2022/08/19 11:01:42;;;;;;;3.55;2.35;;;;;;;;;;5014947;28;20025;-72
2022/08/19 11:04:13;;;;;;;2.10;1.83;;;;;;;;;;5015238;28;20113;-71
2022/08/19 11:06:43;;;;;;;3.63;3.17;;;;;;;;;;5015200;28;20048;-72
2022/08/19 11:09:09;;;;;;;2.40;2.05;;;;;;;;;;5014145;28;20030;-73
2022/08/19 11:11:53;;;;;;;2.67;2.20;;;;;;;;;;5014339;28;20364;-72
2022/08/19 11:14:20;;;;;;;3.97;2.95;;;;;;;;;;5011544;28;20040;-72
2022/08/19 11:16:49;;;;;;;4.68;2.38;;;;;;;;;;5016030;28;20030;-72
2022/08/19 11:19:18;;;;;;;5.03;3.45;;;;;;;;;;5015874;28;20364;-72
2022/08/19 11:21:47;;;;;;;3.08;2.78;;;;;;;;;;5015918;28;20049;-73
2022/08/19 11:24:20;;;;;;;2.83;2.08;;;;;;;;;;5014799;28;20064;-72
2022/08/19 11:26:48;;;;;;;4.07;3.58;;;;;;;;;;5012332;28;20041;-72
2022/08/19 11:29:18;;;;;;;4.40;3.15;;;;;;;;;;5014171;28;20132;-73
2022/08/19 11:31:46;;;;;;;3.45;2.80;;;;;;;;;;4997649;28;20048;-74
2022/08/19 11:34:17;;;;;;;4.15;2.83;;;;;;;;;;5012596;28;20068;-75
2022/08/19 11:36:44;;;;;;;3.97;2.65;;;;;;;;;;5014315;28;20026;-75
2022/08/19 11:39:11;;;;;;;2.88;2.42;;;;;;;;;;5014773;28;20503;-76
2022/08/19 11:41:39;;;;;;;3.80;2.65;;;;;;;;;;5013660;28;20061;-76
2022/08/19 11:44:07;;;;;;;4.20;3.10;;;;;;;;;;5015395;28;20030;-76
2022/08/19 11:46:36;;;;;;;4.35;2.78;;;;;;;;;;5012135;28;20112;-75
2022/08/19 11:49:03;;;;;;;2.95;2.40;;;;;;;;;;5007181;28;20081;-74
2022/08/19 11:51:31;;;;;;;3.08;2.05;;;;;;;;;;5012172;28;20064;-76
2022/08/19 11:53:58;;;;;;;4.00;3.13;;;;;;;;;;5012897;28;20100;-75
2022/08/19 11:56:24;;;;;;;2.30;2.10;;;;;;;;;;5013146;28;20361;-74
2022/08/19 11:58:51;;;;;;;3.00;2.10;;;;;;;;;;5014312;28;20452;-75
2022/08/19 12:01:19;;;;;;;3.38;2.85;;;;;;;;;;5010614;28;20443;-74
2022/08/19 12:03:46;;;;;;;3.13;2.05;;;;;;;;;;5014248;28;20053;-75
2022/08/19 12:06:15;;;;;;;2.72;2.35;;;;;;;;;;5013865;28;20075;-75
2022/08/19 12:08:42;;;;;;;2.05;1.85;;;;;;;;;;5013899;28;20609;-75
2022/08/19 12:11:11;;;;;;;3.15;2.17;;;;;;;;;;5014338;28;20392;-75
2022/08/19 12:13:38;;;;;;;2.22;1.95;;;;;;;;;;5014902;28;20036;-74
2022/08/19 12:16:12;;;;;;;2.20;1.90;;;;;;;;;;5013856;28;20025;-76
2022/08/19 12:18:43;;;;;;;2.83;1.88;;;;;;;;;;5013609;28;20429;-75
2022/08/19 12:21:10;;;;;;;;;;;;;;;;;;5015393;28;20037;-77
2022/08/19 12:23:37;;;;;;;2.10;1.90;;;;;;;;;;5014641;28;19913;-75
2022/08/19 12:26:02;;;;;;;2.75;2.10;;;;;;;;;;5013221;28;20479;-75
2022/08/19 12:28:28;;;;;;;2.20;2.00;;;;;;;;;;5013800;28;20037;-74
2022/08/19 12:30:53;;;;;;;1.98;1.67;;;;;;;;;;5013048;28;20030;-77
2022/08/19 12:33:19;;;;;;;2.47;1.30;;;;;;;;;;5009699;28;20045;-76
2022/08/19 12:35:50;;;;;;;1.33;1.10;;;;;;;;;;5009012;28;20034;-75
2022/08/19 12:38:15;;;;;;;3.05;1.60;;;;;;;;;;5014643;28;20022;-75
2022/08/19 12:40:41;;;;;;;1.95;1.42;;;;;;;;;;5013058;28;20471;-75
2022/08/19 12:43:07;;;;;;;1.35;1.17;;;;;;;;;;5010304;28;20122;-74
2022/08/19 12:45:33;;;;;;;1.65;1.30;;;;;;;;;;4992550;28;20401;-75
2022/08/19 12:48:03;;;;;;;5.43;2.38;;;;;;;;;;5008449;28;20124;-76
2022/08/19 12:50:28;;;;;;;1.67;1.45;;;;;;;;;;5013242;28;20940;-74
2022/08/19 12:53:21;;;;;;;1.88;1.77;;;;;;;;;;5017358;28;20049;-77
2022/08/19 12:55:55;;;;;;;1.90;1.33;;;;;;;;;;5007190;28;20105;-75
2022/08/19 12:58:23;;;;;;;5.60;1.90;;;;;;;;;;5014315;28;20049;-75
2022/08/19 13:00:51;;;;;;;4.45;1.42;;;;;;;;;;5014321;28;20038;-75
2022/08/19 13:03:16;;;;;;;6.45;1.33;;;;;;;;;;5013782;28;20041;-75
2022/08/19 13:05:42;;;;;;;1.95;1.35;;;;;;;;;;5014385;28;20038;-76
2022/08/19 13:08:08;;;;;;;1.75;1.08;;;;;;;;;;5014027;28;20033;-76
2022/08/19 13:10:34;;;;;;;1.38;1.27;;;;;;;;;;5018772;28;20057;-76
2022/08/19 13:13:03;;;;;;;1.77;1.35;;;;;;;;;;5011169;28;20034;-76
2022/08/19 13:15:30;;;;;;;1.67;1.48;;;;;;;;;;5014696;28;20022;-75
2022/08/19 13:17:59;;;;;;;2.05;1.48;;;;;;;;;;5012181;28;20022;-73
2022/08/19 13:20:27;;;;;;;1.98;1.25;;;;;;;;;;4992200;28;20080;-75
2022/08/19 13:22:54;;;;;;;1.73;1.60;;;;;;;;;;5008452;28;20480;-75
2022/08/19 13:25:20;;;;;;;2.15;1.83;;;;;;;;;;5010441;28;20029;-74
2022/08/19 13:27:47;;;;;;;1.63;1.00;;;;;;;;;;5022157;28;20079;-76
2022/08/19 13:33:11;;;;;;;1.40;1.10;;;;;;;;;;5011748;28;20453;-77
2022/08/19 13:35:38;;;;;;;1.17;1.08;;;;;;;;;;5014901;28;20025;-74
2022/08/19 13:38:04;;;;;;;2.15;1.20;;;;;;;;;;5011826;28;20017;-74
2022/08/19 13:40:33;;;;;;;2.10;1.90;;;;;;;;;;5016594;28;20105;-75
2022/08/19 13:42:58;;;;;;;1.70;1.02;;;;;;;;;;5017975;28;20018;-73
2022/08/19 13:45:28;;;;;;;1.50;1.20;;;;;;;;;;5014239;28;20401;-73
2022/08/19 13:47:55;;;;;;;2.50;1.70;;;;;;;;;;5011768;28;20109;-74
2022/08/19 13:50:28;;;;;;;1.33;1.17;;;;;;;;;;5013350;28;20469;-75
2022/08/19 13:52:54;;;;;;;1.95;1.30;;;;;;;;;;5011645;28;20041;-74
2022/08/19 13:58:44;;;;;;;1.08;0.98;;;;;;;;;;5010998;28;20038;-76
2022/08/19 14:01:09;;;;;;;1.00;0.90;;;;;;;;;;5011236;28;20033;-75
2022/08/19 14:03:35;;;;;;;1.38;1.27;;;;;;;;;;5004539;28;20038;-76
2022/08/19 14:06:04;;;;;;;1.92;1.08;;;;;;;;;;5008615;28;20469;-77
2022/08/19 14:08:31;;;;;;;1.20;1.10;;;;;;;;;;5007949;28;20049;-76
2022/08/19 14:10:57;;;;;;;1.25;0.93;;;;;;;;;;5009926;28;20080;-76
2022/08/19 14:13:50;;;;;;;2.15;1.33;;;;;;;;;;5011619;28;20510;-79
2022/08/19 14:16:16;;;;;;;1.27;1.17;;;;;;;;;;5007519;28;20471;-78
2022/08/19 14:18:44;;;;;;;1.55;1.42;;;;;;;;;;5009379;28;20161;-77
2022/08/19 14:21:22;;;;;;;1.15;1.05;;;;;;;;;;5010239;28;20060;-77
2022/08/19 14:23:47;;;;;;;1.02;0.95;;;;;;;;;;5008726;28;20065;-78
2022/08/19 14:26:15;;;;;;;1.10;1.00;;;;;;;;;;5008806;28;20018;-79
2022/08/19 14:28:42;;;;;;;1.58;1.48;;;;;;;;;;5007482;28;20045;-79
2022/08/19 14:31:18;;;;;;;1.58;1.00;;;;;;;;;;5005973;28;20422;-78
2022/08/19 14:33:50;;;;;;;1.00;0.90;;;;;;;;;;5008550;28;20030;-76
2022/08/19 14:36:42;;;;;;;1.77;1.67;;;;;;;;;;5009175;28;20058;-77
2022/08/19 14:39:09;;;;;;;0.98;0.75;;;;;;;;;;5011461;28;20056;-77
2022/08/19 14:41:35;;;;;;;0.95;0.93;;;;;;;;;;5004762;28;20022;-76
2022/08/19 14:44:01;;;;;;;0.80;0.63;;;;;;;;;;5009138;28;20037;-76
2022/08/19 14:46:27;;;;;;;2.17;1.33;;;;;;;;;;5008496;28;20025;-75
2022/08/19 14:49:20;;;;;;;1.38;1.15;;;;;;;;;;5008331;28;20061;-74
2022/08/19 14:51:46;;;;;;;;;;;;;;;;;;4969107;28;20509;-75
2022/08/19 14:54:12;;;;;;;1.55;1.00;;;;;;;;;;4968350;28;19933;-75
2022/08/19 14:56:41;;;;;;;1.88;1.33;;;;;;;;;;4974240;28;20394;-74
2022/08/19 14:59:18;;;;;;;2.10;1.65;;;;;;;;;;4968569;28;20030;-75
2022/08/19 15:01:47;;;;;;;1.90;1.50;;;;;;;;;;4969567;28;20038;-74
2022/08/19 15:04:20;;;;;;;1.67;0.95;;;;;;;;;;4969695;28;20114;-75
2022/08/19 15:06:50;;;;;;;2.88;1.25;;;;;;;;;;4973267;28;20038;-76
2022/08/19 15:09:15;;;;;;;1.55;1.35;;;;;;;;;;4970810;28;20646;-72
2022/08/19 15:11:42;;;;;;;0.85;0.80;;;;;;;;;;4969661;28;20034;-72
2022/08/19 15:14:10;;;;;;;1.08;0.93;;;;;;;;;;4968916;28;20049;-70
2022/08/19 15:16:39;;;;;;;1.00;0.88;;;;;;;;;;4969652;28;20046;-71
2022/08/19 15:19:06;;;;;;;3.42;1.30;;;;;;;;;;4970902;28;20114;-70
2022/08/19 15:21:32;;;;;;;1.85;1.23;;;;;;;;;;4989170;28;20054;-71